sensor_id;sensor_type;location;lat;lon;timestamp;P1;durP1;ratioP1;P2;durP2;ratioP2
3975;SDS011;2002;48.812;9.180;2022-10-15T00:00:53;5.67;;;5.07;;
3975;SDS011;2002;48.812;9.180;2022-10-15T00:03:29;6.20;;;5.60;;
3975;SDS011;2002;48.812;9.180;2022-10-15T00:05:55;6.70;;;5.90;;
3975;SDS011;2002;48.812;9.180;2022-10-15T00:08:20;6.70;;;5.60;;
3975;SDS011;2002;48.812;9.180;2022-10-15T00:10:46;6.93;;;5.70;;
3975;SDS011;2002;48.812;9.180;2022-10-15T00:13:11;6.17;;;5.30;;
3975;SDS011;2002;48.812;9.180;2022-10-15T00:15:37;5.73;;;5.13;;
3975;SDS011;2002;48.812;9.180;2022-10-15T00:18:02;7.17;;;6.20;;
3975;SDS011;2002;48.812;9.180;2022-10-15T00:20:28;6.03;;;5.43;;
3975;SDS011;2002;48.812;9.180;2022-10-15T00:22:54;5.90;;;5.30;;
3975;SDS011;2002;48.812;9.180;2022-10-15T00:25:19;6.13;;;5.40;;
3975;SDS011;2002;48.812;9.180;2022-10-15T00:27:45;8.70;;;6.20;;
3975;SDS011;2002;48.812;9.180;2022-10-15T00:30:10;6.53;;;5.73;;
3975;SDS011;2002;48.812;9.180;2022-10-15T00:32:36;6.03;;;5.43;;
3975;SDS011;2002;48.812;9.180;2022-10-15T00:35:02;6.50;;;5.70;;
3975;SDS011;2002;48.812;9.180;2022-10-15T00:37:28;5.60;;;5.00;;
3975;SDS011;2002;48.812;9.180;2022-10-15T00:39:53;6.00;;;5.40;;
3975;SDS011;2002;48.812;9.180;2022-10-15T00:42:19;5.63;;;5.13;;
3975;SDS011;2002;48.812;9.180;2022-10-15T00:44:46;6.23;;;5.63;;
3975;SDS011;2002;48.812;9.180;2022-10-15T00:47:19;6.27;;;5.33;;
3975;SDS011;2002;48.812;9.180;2022-10-15T00:50:02;6.97;;;6.03;;
3975;SDS011;2002;48.812;9.180;2022-10-15T00:52:33;5.40;;;4.90;;
3975;SDS011;2002;48.812;9.180;2022-10-15T00:55:24;5.90;;;5.27;;
3975;SDS011;2002;48.812;9.180;2022-10-15T00:58:02;5.60;;;5.10;;
3975;SDS011;2002;48.812;9.180;2022-10-15T01:00:31;6.37;;;5.63;;
3975;SDS011;2002;48.812;9.180;2022-10-15T01:02:57;6.17;;;5.33;;
3975;SDS011;2002;48.812;9.180;2022-10-15T01:05:23;5.77;;;4.93;;
3975;SDS011;2002;48.812;9.180;2022-10-15T01:07:49;6.30;;;5.40;;
3975;SDS011;2002;48.812;9.180;2022-10-15T01:10:15;5.10;;;4.60;;
3975;SDS011;2002;48.812;9.180;2022-10-15T01:12:51;5.40;;;4.90;;
3975;SDS011;2002;48.812;9.180;2022-10-15T01:15:41;6.97;;;6.27;;
3975;SDS011;2002;48.812;9.180;2022-10-15T01:18:21;6.13;;;5.53;;
3975;SDS011;2002;48.812;9.180;2022-10-15T01:32:22;6.10;;;5.50;;
3975;SDS011;2002;48.812;9.180;2022-10-15T01:37:44;6.90;;;6.20;;
3975;SDS011;2002;48.812;9.180;2022-10-15T01:40:35;6.00;;;5.17;;
3975;SDS011;2002;48.812;9.180;2022-10-15T01:43:03;6.40;;;5.70;;
3975;SDS011;2002;48.812;9.180;2022-10-15T01:45:40;6.97;;;5.80;;
3975;SDS011;2002;48.812;9.180;2022-10-15T01:48:13;5.77;;;5.27;;
3975;SDS011;2002;48.812;9.180;2022-10-15T01:50:46;6.53;;;5.93;;
3975;SDS011;2002;48.812;9.180;2022-10-15T01:53:16;5.73;;;5.23;;
3975;SDS011;2002;48.812;9.180;2022-10-15T01:55:50;6.33;;;5.43;;
3975;SDS011;2002;48.812;9.180;2022-10-15T01:58:19;7.33;;;5.87;;
3975;SDS011;2002;48.812;9.180;2022-10-15T02:00:46;6.70;;;6.10;;
3975;SDS011;2002;48.812;9.180;2022-10-15T02:03:12;8.10;;;5.60;;
3975;SDS011;2002;48.812;9.180;2022-10-15T02:05:39;6.37;;;5.77;;
3975;SDS011;2002;48.812;9.180;2022-10-15T02:08:29;6.10;;;5.20;;
3975;SDS011;2002;48.812;9.180;2022-10-15T02:11:12;6.07;;;5.30;;
3975;SDS011;2002;48.812;9.180;2022-10-15T02:16:29;5.70;;;5.10;;
3975;SDS011;2002;48.812;9.180;2022-10-15T02:19:07;5.87;;;5.10;;
3975;SDS011;2002;48.812;9.180;2022-10-15T02:24:44;6.30;;;5.70;;
3975;SDS011;2002;48.812;9.180;2022-10-15T02:27:15;6.20;;;5.60;;
3975;SDS011;2002;48.812;9.180;2022-10-15T02:29:42;5.50;;;5.00;;
3975;SDS011;2002;48.812;9.180;2022-10-15T02:32:09;5.80;;;4.90;;
3975;SDS011;2002;48.812;9.180;2022-10-15T02:34:38;6.03;;;5.43;;
3975;SDS011;2002;48.812;9.180;2022-10-15T02:37:04;6.30;;;5.70;;
3975;SDS011;2002;48.812;9.180;2022-10-15T02:39:32;6.20;;;5.30;;
3975;SDS011;2002;48.812;9.180;2022-10-15T02:41:58;4.90;;;4.50;;
3975;SDS011;2002;48.812;9.180;2022-10-15T02:44:24;7.70;;;6.90;;
3975;SDS011;2002;48.812;9.180;2022-10-15T02:46:49;5.90;;;5.40;;
3975;SDS011;2002;48.812;9.180;2022-10-15T02:49:15;6.90;;;6.20;;
3975;SDS011;2002;48.812;9.180;2022-10-15T02:51:41;5.63;;;4.83;;
3975;SDS011;2002;48.812;9.180;2022-10-15T02:54:06;5.90;;;5.30;;
3975;SDS011;2002;48.812;9.180;2022-10-15T02:56:32;6.30;;;5.70;;
3975;SDS011;2002;48.812;9.180;2022-10-15T02:58:58;6.70;;;5.60;;
3975;SDS011;2002;48.812;9.180;2022-10-15T03:01:24;5.60;;;5.10;;
3975;SDS011;2002;48.812;9.180;2022-10-15T03:03:50;7.00;;;5.73;;
3975;SDS011;2002;48.812;9.180;2022-10-15T03:06:15;6.30;;;5.27;;
3975;SDS011;2002;48.812;9.180;2022-10-15T03:08:41;6.60;;;6.00;;
3975;SDS011;2002;48.812;9.180;2022-10-15T03:11:08;5.73;;;5.23;;
3975;SDS011;2002;48.812;9.180;2022-10-15T03:13:34;5.83;;;5.20;;
3975;SDS011;2002;48.812;9.180;2022-10-15T03:16:03;5.50;;;5.00;;
3975;SDS011;2002;48.812;9.180;2022-10-15T03:18:29;5.97;;;5.37;;
3975;SDS011;2002;48.812;9.180;2022-10-15T03:20:55;5.53;;;4.90;;
3975;SDS011;2002;48.812;9.180;2022-10-15T03:23:22;6.37;;;5.37;;
3975;SDS011;2002;48.812;9.180;2022-10-15T03:25:47;6.70;;;5.90;;
3975;SDS011;2002;48.812;9.180;2022-10-15T03:28:13;4.90;;;4.40;;
3975;SDS011;2002;48.812;9.180;2022-10-15T03:30:38;5.47;;;4.93;;
3975;SDS011;2002;48.812;9.180;2022-10-15T03:33:04;6.27;;;5.40;;
3975;SDS011;2002;48.812;9.180;2022-10-15T03:35:30;5.87;;;5.27;;
3975;SDS011;2002;48.812;9.180;2022-10-15T03:37:55;6.23;;;5.07;;
3975;SDS011;2002;48.812;9.180;2022-10-15T03:40:21;5.80;;;5.23;;
3975;SDS011;2002;48.812;9.180;2022-10-15T03:42:50;8.67;;;5.60;;
3975;SDS011;2002;48.812;9.180;2022-10-15T03:45:17;6.13;;;5.23;;
3975;SDS011;2002;48.812;9.180;2022-10-15T03:47:43;5.90;;;5.30;;
3975;SDS011;2002;48.812;9.180;2022-10-15T03:50:08;4.93;;;4.43;;
3975;SDS011;2002;48.812;9.180;2022-10-15T03:52:35;6.03;;;5.13;;
3975;SDS011;2002;48.812;9.180;2022-10-15T03:55:01;5.53;;;4.93;;
3975;SDS011;2002;48.812;9.180;2022-10-15T03:57:27;5.03;;;4.53;;
3975;SDS011;2002;48.812;9.180;2022-10-15T03:59:53;6.00;;;4.93;;
3975;SDS011;2002;48.812;9.180;2022-10-15T04:02:18;5.37;;;4.67;;
3975;SDS011;2002;48.812;9.180;2022-10-15T04:04:44;5.67;;;5.00;;
3975;SDS011;2002;48.812;9.180;2022-10-15T04:07:09;5.70;;;5.10;;
3975;SDS011;2002;48.812;9.180;2022-10-15T04:09:35;6.30;;;4.70;;
3975;SDS011;2002;48.812;9.180;2022-10-15T04:12:00;5.63;;;4.50;;
3975;SDS011;2002;48.812;9.180;2022-10-15T04:14:26;6.47;;;5.60;;
3975;SDS011;2002;48.812;9.180;2022-10-15T04:16:51;5.73;;;5.13;;
3975;SDS011;2002;48.812;9.180;2022-10-15T04:19:17;5.03;;;4.50;;
3975;SDS011;2002;48.812;9.180;2022-10-15T04:21:42;5.57;;;4.40;;
3975;SDS011;2002;48.812;9.180;2022-10-15T04:24:08;5.20;;;4.60;;
3975;SDS011;2002;48.812;9.180;2022-10-15T04:26:34;5.00;;;4.50;;
3975;SDS011;2002;48.812;9.180;2022-10-15T04:28:59;4.87;;;4.27;;
3975;SDS011;2002;48.812;9.180;2022-10-15T04:31:25;5.70;;;5.00;;
3975;SDS011;2002;48.812;9.180;2022-10-15T04:33:51;6.00;;;5.40;;
3975;SDS011;2002;48.812;9.180;2022-10-15T04:36:16;5.13;;;4.73;;
3975;SDS011;2002;48.812;9.180;2022-10-15T04:38:42;4.77;;;4.33;;
3975;SDS011;2002;48.812;9.180;2022-10-15T04:41:08;5.17;;;4.70;;
3975;SDS011;2002;48.812;9.180;2022-10-15T04:43:34;5.00;;;4.47;;
3975;SDS011;2002;48.812;9.180;2022-10-15T04:46:01;6.00;;;5.40;;
3975;SDS011;2002;48.812;9.180;2022-10-15T04:48:28;5.80;;;5.10;;
3975;SDS011;2002;48.812;9.180;2022-10-15T04:51:01;5.37;;;4.87;;
3975;SDS011;2002;48.812;9.180;2022-10-15T04:53:29;4.87;;;4.37;;
3975;SDS011;2002;48.812;9.180;2022-10-15T04:55:58;4.90;;;4.50;;
3975;SDS011;2002;48.812;9.180;2022-10-15T04:58:25;5.63;;;4.60;;
3975;SDS011;2002;48.812;9.180;2022-10-15T05:00:52;5.63;;;4.93;;
3975;SDS011;2002;48.812;9.180;2022-10-15T05:03:18;5.87;;;4.53;;
3975;SDS011;2002;48.812;9.180;2022-10-15T05:05:43;5.53;;;5.00;;
3975;SDS011;2002;48.812;9.180;2022-10-15T05:08:09;4.83;;;4.40;;
3975;SDS011;2002;48.812;9.180;2022-10-15T05:10:34;4.50;;;4.10;;
3975;SDS011;2002;48.812;9.180;2022-10-15T05:13:00;6.57;;;5.20;;
3975;SDS011;2002;48.812;9.180;2022-10-15T05:15:26;5.50;;;5.00;;
3975;SDS011;2002;48.812;9.180;2022-10-15T05:17:52;5.70;;;4.40;;
3975;SDS011;2002;48.812;9.180;2022-10-15T05:20:18;5.23;;;4.73;;
3975;SDS011;2002;48.812;9.180;2022-10-15T05:22:43;5.10;;;4.50;;
3975;SDS011;2002;48.812;9.180;2022-10-15T05:25:09;5.53;;;4.90;;
3975;SDS011;2002;48.812;9.180;2022-10-15T05:27:34;5.60;;;4.50;;
3975;SDS011;2002;48.812;9.180;2022-10-15T05:30:00;4.83;;;4.40;;
3975;SDS011;2002;48.812;9.180;2022-10-15T05:32:25;5.07;;;4.43;;
3975;SDS011;2002;48.812;9.180;2022-10-15T05:34:51;6.10;;;5.53;;
3975;SDS011;2002;48.812;9.180;2022-10-15T05:37:16;5.50;;;5.00;;
3975;SDS011;2002;48.812;9.180;2022-10-15T05:39:42;4.70;;;4.10;;
3975;SDS011;2002;48.812;9.180;2022-10-15T05:42:08;5.90;;;4.70;;
3975;SDS011;2002;48.812;9.180;2022-10-15T05:44:34;5.20;;;4.70;;
3975;SDS011;2002;48.812;9.180;2022-10-15T05:46:59;4.30;;;3.90;;
3975;SDS011;2002;48.812;9.180;2022-10-15T05:49:25;5.10;;;4.60;;
3975;SDS011;2002;48.812;9.180;2022-10-15T05:51:50;5.20;;;4.27;;
3975;SDS011;2002;48.812;9.180;2022-10-15T05:54:16;4.70;;;4.17;;
3975;SDS011;2002;48.812;9.180;2022-10-15T05:56:41;4.40;;;4.00;;
3975;SDS011;2002;48.812;9.180;2022-10-15T05:59:07;5.47;;;4.97;;
3975;SDS011;2002;48.812;9.180;2022-10-15T06:01:33;4.57;;;4.17;;
3975;SDS011;2002;48.812;9.180;2022-10-15T06:03:58;5.33;;;4.83;;
3975;SDS011;2002;48.812;9.180;2022-10-15T06:06:24;6.53;;;6.03;;
3975;SDS011;2002;48.812;9.180;2022-10-15T06:08:51;5.13;;;4.53;;
3975;SDS011;2002;48.812;9.180;2022-10-15T06:11:18;5.23;;;4.73;;
3975;SDS011;2002;48.812;9.180;2022-10-15T06:13:44;5.13;;;4.00;;
3975;SDS011;2002;48.812;9.180;2022-10-15T06:16:11;5.07;;;4.57;;
3975;SDS011;2002;48.812;9.180;2022-10-15T06:18:37;4.80;;;4.37;;
3975;SDS011;2002;48.812;9.180;2022-10-15T06:21:04;4.93;;;4.43;;
3975;SDS011;2002;48.812;9.180;2022-10-15T06:23:30;4.87;;;4.37;;
3975;SDS011;2002;48.812;9.180;2022-10-15T06:26:00;4.70;;;4.30;;
3975;SDS011;2002;48.812;9.180;2022-10-15T06:28:27;4.47;;;4.07;;
3975;SDS011;2002;48.812;9.180;2022-10-15T06:30:53;5.90;;;5.30;;
3975;SDS011;2002;48.812;9.180;2022-10-15T06:33:21;5.30;;;4.67;;
3975;SDS011;2002;48.812;9.180;2022-10-15T06:35:47;4.30;;;3.90;;
3975;SDS011;2002;48.812;9.180;2022-10-15T06:38:12;5.10;;;4.30;;
3975;SDS011;2002;48.812;9.180;2022-10-15T06:40:38;4.30;;;3.90;;
3975;SDS011;2002;48.812;9.180;2022-10-15T06:43:08;4.17;;;3.87;;
3975;SDS011;2002;48.812;9.180;2022-10-15T06:45:39;5.60;;;4.53;;
3975;SDS011;2002;48.812;9.180;2022-10-15T06:48:09;5.73;;;4.60;;
3975;SDS011;2002;48.812;9.180;2022-10-15T06:50:35;4.87;;;4.20;;
3975;SDS011;2002;48.812;9.180;2022-10-15T06:53:02;4.40;;;4.00;;
3975;SDS011;2002;48.812;9.180;2022-10-15T06:55:28;4.90;;;4.40;;
3975;SDS011;2002;48.812;9.180;2022-10-15T06:57:54;5.00;;;4.27;;
3975;SDS011;2002;48.812;9.180;2022-10-15T07:00:20;4.83;;;4.33;;
3975;SDS011;2002;48.812;9.180;2022-10-15T07:02:47;5.47;;;4.47;;
3975;SDS011;2002;48.812;9.180;2022-10-15T07:05:13;5.30;;;4.43;;
3975;SDS011;2002;48.812;9.180;2022-10-15T07:07:39;4.30;;;3.90;;
3975;SDS011;2002;48.812;9.180;2022-10-15T07:10:05;4.60;;;4.20;;
3975;SDS011;2002;48.812;9.180;2022-10-15T07:12:30;5.07;;;4.57;;
3975;SDS011;2002;48.812;9.180;2022-10-15T07:14:56;6.27;;;4.53;;
3975;SDS011;2002;48.812;9.180;2022-10-15T07:17:21;5.03;;;4.53;;
3975;SDS011;2002;48.812;9.180;2022-10-15T07:19:47;4.43;;;3.83;;
3975;SDS011;2002;48.812;9.180;2022-10-15T07:22:13;4.00;;;3.60;;
3975;SDS011;2002;48.812;9.180;2022-10-15T07:24:38;4.37;;;3.47;;
3975;SDS011;2002;48.812;9.180;2022-10-15T07:27:04;4.33;;;3.93;;
3975;SDS011;2002;48.812;9.180;2022-10-15T07:29:29;4.63;;;4.23;;
3975;SDS011;2002;48.812;9.180;2022-10-15T07:31:55;4.50;;;4.10;;
3975;SDS011;2002;48.812;9.180;2022-10-15T07:34:21;4.33;;;4.03;;
3975;SDS011;2002;48.812;9.180;2022-10-15T07:36:47;4.70;;;3.70;;
3975;SDS011;2002;48.812;9.180;2022-10-15T07:39:12;4.83;;;4.40;;
3975;SDS011;2002;48.812;9.180;2022-10-15T07:41:38;4.30;;;3.80;;
3975;SDS011;2002;48.812;9.180;2022-10-15T07:44:03;4.80;;;4.30;;
3975;SDS011;2002;48.812;9.180;2022-10-15T07:46:29;5.10;;;4.60;;
3975;SDS011;2002;48.812;9.180;2022-10-15T07:48:55;4.17;;;3.77;;
3975;SDS011;2002;48.812;9.180;2022-10-15T07:51:20;4.63;;;4.17;;
3975;SDS011;2002;48.812;9.180;2022-10-15T07:53:46;4.67;;;4.17;;
3975;SDS011;2002;48.812;9.180;2022-10-15T07:56:12;6.20;;;4.43;;
3975;SDS011;2002;48.812;9.180;2022-10-15T07:58:39;4.77;;;4.27;;
3975;SDS011;2002;48.812;9.180;2022-10-15T08:01:06;5.67;;;4.17;;
3975;SDS011;2002;48.812;9.180;2022-10-15T08:03:33;4.77;;;4.37;;
3975;SDS011;2002;48.812;9.180;2022-10-15T08:05:59;5.10;;;4.60;;
3975;SDS011;2002;48.812;9.180;2022-10-15T08:08:26;4.87;;;4.27;;
3975;SDS011;2002;48.812;9.180;2022-10-15T08:10:52;4.80;;;4.30;;
3975;SDS011;2002;48.812;9.180;2022-10-15T08:13:17;4.50;;;4.10;;
3975;SDS011;2002;48.812;9.180;2022-10-15T08:15:43;4.37;;;3.97;;
3975;SDS011;2002;48.812;9.180;2022-10-15T08:18:09;3.50;;;3.20;;
3975;SDS011;2002;48.812;9.180;2022-10-15T08:20:35;4.07;;;3.67;;
3975;SDS011;2002;48.812;9.180;2022-10-15T08:23:01;3.57;;;3.27;;
3975;SDS011;2002;48.812;9.180;2022-10-15T08:25:27;3.77;;;3.47;;
3975;SDS011;2002;48.812;9.180;2022-10-15T08:27:53;4.27;;;3.87;;
3975;SDS011;2002;48.812;9.180;2022-10-15T08:30:19;5.10;;;4.70;;
3975;SDS011;2002;48.812;9.180;2022-10-15T08:32:44;4.33;;;3.50;;
3975;SDS011;2002;48.812;9.180;2022-10-15T08:35:10;4.43;;;4.03;;
3975;SDS011;2002;48.812;9.180;2022-10-15T08:37:36;4.63;;;4.10;;
3975;SDS011;2002;48.812;9.180;2022-10-15T08:40:02;4.93;;;4.30;;
3975;SDS011;2002;48.812;9.180;2022-10-15T08:42:31;4.70;;;4.10;;
3975;SDS011;2002;48.812;9.180;2022-10-15T08:45:02;4.17;;;3.77;;
3975;SDS011;2002;48.812;9.180;2022-10-15T08:47:37;4.37;;;3.97;;
3975;SDS011;2002;48.812;9.180;2022-10-15T08:50:18;4.97;;;4.40;;
3975;SDS011;2002;48.812;9.180;2022-10-15T08:53:04;5.00;;;4.50;;
3975;SDS011;2002;48.812;9.180;2022-10-15T08:55:34;5.07;;;4.30;;
3975;SDS011;2002;48.812;9.180;2022-10-15T09:00:49;4.30;;;3.90;;
3975;SDS011;2002;48.812;9.180;2022-10-15T09:06:29;4.37;;;3.97;;
3975;SDS011;2002;48.812;9.180;2022-10-15T09:09:01;3.77;;;3.47;;
3975;SDS011;2002;48.812;9.180;2022-10-15T09:14:09;3.60;;;3.30;;
3975;SDS011;2002;48.812;9.180;2022-10-15T09:16:39;5.03;;;3.90;;
3975;SDS011;2002;48.812;9.180;2022-10-15T09:19:15;4.30;;;3.70;;
3975;SDS011;2002;48.812;9.180;2022-10-15T09:21:43;4.30;;;3.90;;
3975;SDS011;2002;48.812;9.180;2022-10-15T09:24:12;5.57;;;4.67;;
3975;SDS011;2002;48.812;9.180;2022-10-15T09:29:38;3.57;;;3.27;;
3975;SDS011;2002;48.812;9.180;2022-10-15T09:35:00;4.67;;;4.13;;
3975;SDS011;2002;48.812;9.180;2022-10-15T09:40:36;5.37;;;4.27;;
3975;SDS011;2002;48.812;9.180;2022-10-15T09:43:10;4.23;;;3.63;;
3975;SDS011;2002;48.812;9.180;2022-10-15T09:45:37;4.50;;;3.83;;
3975;SDS011;2002;48.812;9.180;2022-10-15T09:48:05;4.20;;;3.80;;
3975;SDS011;2002;48.812;9.180;2022-10-15T09:50:41;4.97;;;4.00;;
3975;SDS011;2002;48.812;9.180;2022-10-15T09:56:07;4.27;;;3.87;;
3975;SDS011;2002;48.812;9.180;2022-10-15T09:58:41;4.27;;;3.70;;
3975;SDS011;2002;48.812;9.180;2022-10-15T10:01:20;3.47;;;3.17;;
3975;SDS011;2002;48.812;9.180;2022-10-15T10:03:51;4.40;;;4.00;;
3975;SDS011;2002;48.812;9.180;2022-10-15T10:06:19;3.77;;;3.20;;
3975;SDS011;2002;48.812;9.180;2022-10-15T10:08:51;4.17;;;3.50;;
3975;SDS011;2002;48.812;9.180;2022-10-15T10:11:19;3.63;;;3.10;;
3975;SDS011;2002;48.812;9.180;2022-10-15T10:16:13;4.10;;;3.20;;
3975;SDS011;2002;48.812;9.180;2022-10-15T10:18:40;3.93;;;3.53;;
3975;SDS011;2002;48.812;9.180;2022-10-15T10:21:21;4.30;;;3.80;;
3975;SDS011;2002;48.812;9.180;2022-10-15T10:23:50;5.03;;;4.30;;
3975;SDS011;2002;48.812;9.180;2022-10-15T10:26:16;4.77;;;3.87;;
3975;SDS011;2002;48.812;9.180;2022-10-15T10:31:25;3.57;;;3.27;;
3975;SDS011;2002;48.812;9.180;2022-10-15T10:33:53;4.93;;;3.73;;
3975;SDS011;2002;48.812;9.180;2022-10-15T10:36:32;3.37;;;3.03;;
3975;SDS011;2002;48.812;9.180;2022-10-15T10:39:00;4.13;;;3.43;;
3975;SDS011;2002;48.812;9.180;2022-10-15T10:41:50;3.13;;;2.83;;
3975;SDS011;2002;48.812;9.180;2022-10-15T10:44:32;4.03;;;3.63;;
3975;SDS011;2002;48.812;9.180;2022-10-15T10:47:18;4.50;;;3.63;;
3975;SDS011;2002;48.812;9.180;2022-10-15T10:49:46;4.03;;;3.63;;
3975;SDS011;2002;48.812;9.180;2022-10-15T10:52:18;4.43;;;3.90;;
3975;SDS011;2002;48.812;9.180;2022-10-15T10:54:56;3.90;;;3.50;;
3975;SDS011;2002;48.812;9.180;2022-10-15T10:57:28;4.40;;;4.00;;
3975;SDS011;2002;48.812;9.180;2022-10-15T11:00:02;3.60;;;3.30;;
3975;SDS011;2002;48.812;9.180;2022-10-15T11:02:29;4.40;;;4.03;;
3975;SDS011;2002;48.812;9.180;2022-10-15T11:04:56;4.50;;;4.10;;
3975;SDS011;2002;48.812;9.180;2022-10-15T11:07:56;3.40;;;3.10;;
3975;SDS011;2002;48.812;9.180;2022-10-15T11:10:36;3.77;;;3.40;;
3975;SDS011;2002;48.812;9.180;2022-10-15T11:16:12;4.17;;;3.23;;
3975;SDS011;2002;48.812;9.180;2022-10-15T11:24:21;3.83;;;3.53;;
3975;SDS011;2002;48.812;9.180;2022-10-15T11:29:53;3.90;;;3.50;;
3975;SDS011;2002;48.812;9.180;2022-10-15T11:38:32;4.67;;;4.00;;
3975;SDS011;2002;48.812;9.180;2022-10-15T11:41:13;3.50;;;3.20;;
3975;SDS011;2002;48.812;9.180;2022-10-15T11:52:15;4.17;;;3.57;;
3975;SDS011;2002;48.812;9.180;2022-10-15T11:54:53;4.07;;;3.13;;
3975;SDS011;2002;48.812;9.180;2022-10-15T11:57:21;3.50;;;3.20;;
3975;SDS011;2002;48.812;9.180;2022-10-15T11:59:53;4.53;;;4.13;;
3975;SDS011;2002;48.812;9.180;2022-10-15T12:05:17;4.03;;;3.50;;
3975;SDS011;2002;48.812;9.180;2022-10-15T12:07:56;3.30;;;3.00;;
3975;SDS011;2002;48.812;9.180;2022-10-15T12:13:08;4.70;;;4.23;;
3975;SDS011;2002;48.812;9.180;2022-10-15T12:16:05;3.67;;;3.30;;
3975;SDS011;2002;48.812;9.180;2022-10-15T12:18:37;4.13;;;3.70;;
3975;SDS011;2002;48.812;9.180;2022-10-15T12:24:05;4.57;;;3.60;;
3975;SDS011;2002;48.812;9.180;2022-10-15T12:26:51;3.97;;;3.53;;
3975;SDS011;2002;48.812;9.180;2022-10-15T12:29:18;4.90;;;3.63;;
3975;SDS011;2002;48.812;9.180;2022-10-15T12:31:46;3.90;;;3.50;;
3975;SDS011;2002;48.812;9.180;2022-10-15T12:34:24;3.40;;;3.10;;
3975;SDS011;2002;48.812;9.180;2022-10-15T12:37:04;4.07;;;3.43;;
3975;SDS011;2002;48.812;9.180;2022-10-15T12:39:38;3.37;;;3.00;;
3975;SDS011;2002;48.812;9.180;2022-10-15T12:42:15;3.53;;;3.23;;
3975;SDS011;2002;48.812;9.180;2022-10-15T12:44:47;3.77;;;3.37;;
3975;SDS011;2002;48.812;9.180;2022-10-15T12:47:13;3.80;;;3.40;;
3975;SDS011;2002;48.812;9.180;2022-10-15T12:55:21;3.97;;;3.60;;
3975;SDS011;2002;48.812;9.180;2022-10-15T13:02:49;3.50;;;3.20;;
3975;SDS011;2002;48.812;9.180;2022-10-15T13:05:26;3.70;;;3.40;;
3975;SDS011;2002;48.812;9.180;2022-10-15T13:07:54;3.53;;;3.23;;
3975;SDS011;2002;48.812;9.180;2022-10-15T13:10:24;3.33;;;3.03;;
3975;SDS011;2002;48.812;9.180;2022-10-15T13:13:04;3.70;;;3.30;;
3975;SDS011;2002;48.812;9.180;2022-10-15T13:15:36;3.57;;;3.27;;
3975;SDS011;2002;48.812;9.180;2022-10-15T13:18:05;3.53;;;3.10;;
3975;SDS011;2002;48.812;9.180;2022-10-15T13:20:33;4.07;;;3.13;;
3975;SDS011;2002;48.812;9.180;2022-10-15T13:28:41;4.40;;;3.70;;
3975;SDS011;2002;48.812;9.180;2022-10-15T13:31:12;4.60;;;3.70;;
3975;SDS011;2002;48.812;9.180;2022-10-15T13:33:49;3.80;;;3.50;;
3975;SDS011;2002;48.812;9.180;2022-10-15T13:36:19;4.10;;;3.37;;
3975;SDS011;2002;48.812;9.180;2022-10-15T13:38:52;3.43;;;3.13;;
3975;SDS011;2002;48.812;9.180;2022-10-15T13:41:22;4.10;;;3.20;;
3975;SDS011;2002;48.812;9.180;2022-10-15T13:43:50;3.70;;;3.40;;
3975;SDS011;2002;48.812;9.180;2022-10-15T13:46:18;3.43;;;3.13;;
3975;SDS011;2002;48.812;9.180;2022-10-15T13:48:47;4.70;;;3.33;;
3975;SDS011;2002;48.812;9.180;2022-10-15T13:51:12;2.73;;;2.50;;
3975;SDS011;2002;48.812;9.180;2022-10-15T13:53:39;3.87;;;3.47;;
3975;SDS011;2002;48.812;9.180;2022-10-15T13:56:21;3.80;;;3.20;;
3975;SDS011;2002;48.812;9.180;2022-10-15T13:58:52;3.80;;;3.40;;
3975;SDS011;2002;48.812;9.180;2022-10-15T14:01:19;4.17;;;3.77;;
3975;SDS011;2002;48.812;9.180;2022-10-15T14:03:48;3.80;;;3.03;;
3975;SDS011;2002;48.812;9.180;2022-10-15T14:06:30;4.03;;;3.50;;
3975;SDS011;2002;48.812;9.180;2022-10-15T14:08:58;3.10;;;2.80;;
3975;SDS011;2002;48.812;9.180;2022-10-15T14:11:43;3.40;;;2.53;;
3975;SDS011;2002;48.812;9.180;2022-10-15T14:17:05;4.23;;;3.83;;
3975;SDS011;2002;48.812;9.180;2022-10-15T14:19:32;3.63;;;3.13;;
3975;SDS011;2002;48.812;9.180;2022-10-15T14:22:01;3.23;;;2.77;;
3975;SDS011;2002;48.812;9.180;2022-10-15T14:24:35;3.20;;;2.80;;
3975;SDS011;2002;48.812;9.180;2022-10-15T14:29:43;3.30;;;3.00;;
3975;SDS011;2002;48.812;9.180;2022-10-15T14:34:49;3.53;;;3.17;;
3975;SDS011;2002;48.812;9.180;2022-10-15T14:47:49;3.20;;;2.90;;
3975;SDS011;2002;48.812;9.180;2022-10-15T14:50:17;3.67;;;3.37;;
3975;SDS011;2002;48.812;9.180;2022-10-15T14:52:44;3.37;;;3.07;;
3975;SDS011;2002;48.812;9.180;2022-10-15T14:55:26;3.80;;;2.87;;
3975;SDS011;2002;48.812;9.180;2022-10-15T14:57:55;3.63;;;3.33;;
3975;SDS011;2002;48.812;9.180;2022-10-15T15:02:56;2.73;;;2.53;;
3975;SDS011;2002;48.812;9.180;2022-10-15T15:05:24;3.93;;;3.27;;
3975;SDS011;2002;48.812;9.180;2022-10-15T15:07:51;3.00;;;2.70;;
3975;SDS011;2002;48.812;9.180;2022-10-15T15:10:18;4.10;;;3.70;;
3975;SDS011;2002;48.812;9.180;2022-10-15T15:12:45;3.03;;;2.80;;
3975;SDS011;2002;48.812;9.180;2022-10-15T15:15:18;3.83;;;2.90;;
3975;SDS011;2002;48.812;9.180;2022-10-15T15:17:45;3.70;;;3.13;;
3975;SDS011;2002;48.812;9.180;2022-10-15T15:20:12;3.33;;;2.90;;
3975;SDS011;2002;48.812;9.180;2022-10-15T15:22:38;3.83;;;3.00;;
3975;SDS011;2002;48.812;9.180;2022-10-15T15:25:09;3.83;;;3.30;;
3975;SDS011;2002;48.812;9.180;2022-10-15T15:27:39;3.70;;;3.40;;
3975;SDS011;2002;48.812;9.180;2022-10-15T15:30:14;3.20;;;2.90;;
3975;SDS011;2002;48.812;9.180;2022-10-15T15:32:42;3.33;;;3.03;;
3975;SDS011;2002;48.812;9.180;2022-10-15T15:37:52;2.70;;;2.50;;
3975;SDS011;2002;48.812;9.180;2022-10-15T15:40:18;3.33;;;3.03;;
3975;SDS011;2002;48.812;9.180;2022-10-15T15:42:44;3.57;;;3.20;;
3975;SDS011;2002;48.812;9.180;2022-10-15T15:45:18;3.00;;;2.63;;
3975;SDS011;2002;48.812;9.180;2022-10-15T15:47:45;2.80;;;2.60;;
3975;SDS011;2002;48.812;9.180;2022-10-15T15:50:11;3.37;;;2.40;;
3975;SDS011;2002;48.812;9.180;2022-10-15T15:52:37;3.20;;;2.90;;
3975;SDS011;2002;48.812;9.180;2022-10-15T15:55:02;2.63;;;2.43;;
3975;SDS011;2002;48.812;9.180;2022-10-15T15:57:28;3.00;;;2.80;;
3975;SDS011;2002;48.812;9.180;2022-10-15T15:59:54;3.30;;;2.90;;
3975;SDS011;2002;48.812;9.180;2022-10-15T16:02:19;3.10;;;2.80;;
3975;SDS011;2002;48.812;9.180;2022-10-15T16:04:45;3.50;;;3.20;;
3975;SDS011;2002;48.812;9.180;2022-10-15T16:07:11;3.37;;;2.77;;
3975;SDS011;2002;48.812;9.180;2022-10-15T16:09:36;3.73;;;3.20;;
3975;SDS011;2002;48.812;9.180;2022-10-15T16:12:02;3.90;;;3.10;;
3975;SDS011;2002;48.812;9.180;2022-10-15T16:14:28;3.10;;;2.60;;
3975;SDS011;2002;48.812;9.180;2022-10-15T16:16:53;2.90;;;2.60;;
3975;SDS011;2002;48.812;9.180;2022-10-15T16:19:19;3.10;;;2.80;;
3975;SDS011;2002;48.812;9.180;2022-10-15T16:21:44;3.53;;;3.10;;
3975;SDS011;2002;48.812;9.180;2022-10-15T16:24:10;3.40;;;2.90;;
3975;SDS011;2002;48.812;9.180;2022-10-15T16:26:36;3.23;;;2.93;;
3975;SDS011;2002;48.812;9.180;2022-10-15T16:29:01;2.93;;;2.73;;
3975;SDS011;2002;48.812;9.180;2022-10-15T16:31:27;2.80;;;2.60;;
3975;SDS011;2002;48.812;9.180;2022-10-15T16:33:53;3.30;;;2.87;;
3975;SDS011;2002;48.812;9.180;2022-10-15T16:36:19;3.20;;;2.90;;
3975;SDS011;2002;48.812;9.180;2022-10-15T16:38:45;2.80;;;2.60;;
3975;SDS011;2002;48.812;9.180;2022-10-15T16:41:11;3.23;;;2.93;;
3975;SDS011;2002;48.812;9.180;2022-10-15T16:43:38;3.77;;;2.83;;
3975;SDS011;2002;48.812;9.180;2022-10-15T16:46:04;2.97;;;2.77;;
3975;SDS011;2002;48.812;9.180;2022-10-15T16:48:31;3.30;;;3.00;;
3975;SDS011;2002;48.812;9.180;2022-10-15T16:51:01;3.07;;;2.87;;
3975;SDS011;2002;48.812;9.180;2022-10-15T16:53:27;3.20;;;2.90;;
3975;SDS011;2002;48.812;9.180;2022-10-15T16:55:57;3.50;;;2.80;;
3975;SDS011;2002;48.812;9.180;2022-10-15T16:58:25;2.80;;;2.53;;
3975;SDS011;2002;48.812;9.180;2022-10-15T17:00:50;3.67;;;3.00;;
3975;SDS011;2002;48.812;9.180;2022-10-15T17:03:16;3.10;;;2.70;;
3975;SDS011;2002;48.812;9.180;2022-10-15T17:05:41;4.17;;;3.77;;
3975;SDS011;2002;48.812;9.180;2022-10-15T17:08:07;3.03;;;2.77;;
3975;SDS011;2002;48.812;9.180;2022-10-15T17:10:33;3.43;;;2.90;;
3975;SDS011;2002;48.812;9.180;2022-10-15T17:12:58;3.37;;;2.77;;
3975;SDS011;2002;48.812;9.180;2022-10-15T17:15:24;3.17;;;2.73;;
3975;SDS011;2002;48.812;9.180;2022-10-15T17:17:50;2.77;;;2.50;;
3975;SDS011;2002;48.812;9.180;2022-10-15T17:20:15;3.17;;;2.87;;
3975;SDS011;2002;48.812;9.180;2022-10-15T17:22:41;3.10;;;2.90;;
3975;SDS011;2002;48.812;9.180;2022-10-15T17:25:06;3.03;;;2.37;;